Time;durP1;ratioP1;P1;durP2;ratioP2;P2;SDS_P1;SDS_P2;PMS_P1;PMS_P2;Temp;Humidity;BMP_temperature;BMP_pressure;BME280_temperature;BME280_humidity;BME280_pressure;Samples;Min_cycle;Max_cycle;Signal;HPM_P1;HPM_P2
2022/09/25 00:00:31;;;;;;;18.20;16.30;;;10.60;97.90;;;;;;6241138;23;20386;-46
2022/09/25 00:02:57;;;;;;;21.70;17.40;;;10.60;98.40;;;;;;6241301;23;20515;-48
2022/09/25 00:05:23;;;;;;;19.90;18.00;;;10.50;99.30;;;;;;6240757;23;20138;-46
2022/09/25 00:07:48;;;;;;;18.47;16.60;;;10.50;99.90;;;;;;6240368;23;20438;-46
2022/09/25 00:10:14;;;;;;;19.53;17.30;;;10.50;99.90;;;;;;6241100;23;20592;-46
2022/09/25 00:12:41;;;;;;;18.53;16.63;;;10.60;99.90;;;;;;6240902;23;20244;-45
2022/09/25 00:15:07;;;;;;;18.20;16.30;;;10.50;99.90;;;;;;6240517;23;20584;-46
2022/09/25 00:17:32;;;;;;;18.17;15.90;;;10.50;99.90;;;;;;6240855;23;20416;-46
2022/09/25 00:19:58;;;;;;;18.20;16.40;;;10.50;99.90;;;;;;6240399;23;20375;-48
2022/09/25 00:22:25;;;;;;;19.20;17.30;;;10.50;99.90;;;;;;6241045;23;20145;-45
2022/09/25 00:24:51;;;;;;;19.07;17.07;;;10.50;99.90;;;;;;6240427;23;20153;-45
2022/09/25 00:27:18;;;;;;;20.63;17.20;;;10.40;99.90;;;;;;6240825;23;20977;-47
2022/09/25 00:29:44;;;;;;;17.73;15.80;;;10.50;99.90;;;;;;6240737;23;20228;-46
2022/09/25 00:32:10;;;;;;;18.10;16.20;;;10.50;99.90;;;;;;6240997;23;20386;-48
2022/09/25 00:34:37;;;;;;;18.70;16.80;;;10.50;99.90;;;;;;6240361;23;20384;-46
2022/09/25 00:37:03;;;;;;;18.93;17.03;;;10.40;99.90;;;;;;6240868;23;20889;-45
2022/09/25 00:39:30;;;;;;;18.77;16.97;;;10.40;99.90;;;;;;6240260;23;20419;-47
2022/09/25 00:41:56;;;;;;;19.50;17.40;;;10.40;99.90;;;;;;6240606;23;20379;-50
2022/09/25 00:44:55;;;;;;;18.60;16.70;;;10.50;99.90;;;;;;6240174;23;20361;-47
2022/09/25 00:47:30;;;;;;;17.33;15.73;;;10.50;99.90;;;;;;6241301;23;20327;-44
2022/09/25 00:49:58;;;;;;;18.83;16.93;;;10.50;99.90;;;;;;6240922;23;20383;-46
2022/09/25 00:52:25;;;;;;;17.40;15.70;;;10.50;99.90;;;;;;6240715;23;20372;-44
2022/09/25 00:55:02;;;;;;;18.43;16.60;;;10.50;99.90;;;;;;6239959;23;20431;-44
2022/09/25 00:57:31;;;;;;;18.03;15.97;;;10.60;99.90;;;;;;6239625;23;20419;-46
2022/09/25 01:00:01;;;;;;;18.47;16.60;;;10.60;99.90;;;;;;6241326;23;20712;-47
2022/09/25 01:02:30;;;;;;;18.83;16.93;;;10.60;99.90;;;;;;6240920;23;20364;-46
2022/09/25 01:05:01;;;;;;;18.00;16.20;;;10.50;99.90;;;;;;6240201;23;20487;-49
2022/09/25 01:07:28;;;;;;;18.63;16.60;;;10.50;99.90;;;;;;6240138;23;20368;-43
2022/09/25 01:10:01;;;;;;;18.93;17.10;;;10.60;99.90;;;;;;6240631;23;20752;-45
2022/09/25 01:12:27;;;;;;;19.20;17.30;;;10.60;99.90;;;;;;6240368;23;20823;-53
2022/09/25 01:14:52;;;;;;;18.73;16.93;;;10.60;99.90;;;;;;6240501;23;20368;-47
2022/09/25 01:17:28;;;;;;;19.53;17.53;;;10.50;99.90;;;;;;6240001;23;20500;-46
2022/09/25 01:20:09;;;;;;;19.37;17.37;;;10.50;99.90;;;;;;6241140;23;20561;-43
2022/09/25 01:22:44;;;;;;;19.47;17.40;;;10.50;99.90;;;;;;6240565;23;20352;-45
2022/09/25 01:25:28;;;;;;;20.60;17.60;;;10.50;99.90;;;;;;6240486;23;20391;-44
2022/09/25 01:28:30;;;;;;;19.50;17.60;;;10.50;99.90;;;;;;6239615;23;20729;-44
2022/09/25 01:31:03;;;;;;;20.27;18.13;;;10.50;99.90;;;;;;6240698;23;20391;-44
2022/09/25 01:33:45;;;;;;;19.13;17.23;;;10.50;99.90;;;;;;6240470;23;20369;-47
2022/09/25 01:36:26;;;;;;;20.53;17.90;;;10.50;99.90;;;;;;6240018;23;20368;-45
2022/09/25 01:39:14;;;;;;;18.83;16.87;;;10.50;99.90;;;;;;6240036;23;20480;-46
2022/09/25 01:41:53;;;;;;;18.80;17.00;;;10.50;99.90;;;;;;6240331;23;20356;-45
2022/09/25 01:44:29;;;;;;;19.70;17.73;;;10.60;99.90;;;;;;6239686;23;20497;-45
2022/09/25 01:47:05;;;;;;;21.13;18.90;;;10.60;99.90;;;;;;6239709;23;20421;-46
2022/09/25 01:49:36;;;;;;;20.07;17.97;;;10.60;99.90;;;;;;6240124;23;20851;-44
2022/09/25 01:52:09;;;;;;;20.00;17.90;;;10.70;99.90;;;;;;6238715;23;20455;-45
2022/09/25 01:54:41;;;;;;;19.30;17.40;;;10.70;99.90;;;;;;6240549;23;20387;-44
2022/09/25 01:57:08;;;;;;;19.47;17.47;;;10.70;99.90;;;;;;6239734;23;20424;-46
2022/09/25 01:59:57;;;;;;;18.47;16.57;;;10.70;99.90;;;;;;6239567;23;20804;-44
2022/09/25 02:02:27;;;;;;;18.40;16.50;;;10.70;99.90;;;;;;6242219;23;20434;-46
2022/09/25 02:05:00;;;;;;;19.30;17.40;;;10.80;99.90;;;;;;6242132;23;20360;-46
2022/09/25 02:07:30;;;;;;;17.60;15.90;;;10.80;99.90;;;;;;6242242;23;20375;-44
2022/09/25 02:10:31;;;;;;;19.03;17.03;;;10.80;99.90;;;;;;6241651;23;20368;-48
2022/09/25 02:13:16;;;;;;;18.43;16.63;;;10.90;99.90;;;;;;6240564;23;20396;-47
2022/09/25 02:15:53;;;;;;;18.17;16.43;;;10.90;99.90;;;;;;6241954;23;20862;-48
2022/09/25 02:21:21;;;;;;;17.90;16.20;;;11.00;99.90;;;;;;6241986;23;20379;-44
2022/09/25 02:24:04;;;;;;;19.83;17.03;;;11.00;99.90;;;;;;6241763;23;20387;-47
2022/09/25 02:26:32;;;;;;;19.53;17.53;;;11.00;99.90;;;;;;6242237;23;20389;-45
2022/09/25 02:28:58;;;;;;;18.40;16.50;;;11.00;99.90;;;;;;6241873;23;20387;-51
2022/09/25 02:31:43;;;;;;;17.23;15.53;;;11.00;99.90;;;;;;6241771;23;20368;-48
2022/09/25 02:34:10;;;;;;;16.30;14.80;;;11.10;99.90;;;;;;6241526;23;20392;-47
2022/09/25 02:36:36;;;;;;;18.20;16.30;;;11.10;99.90;;;;;;6241917;23;20432;-48
2022/09/25 02:39:04;;;;;;;17.20;15.50;;;11.10;99.90;;;;;;6240752;23;20435;-45
2022/09/25 02:41:30;;;;;;;18.40;16.57;;;11.10;99.90;;;;;;6239975;23;20191;-44
2022/09/25 02:44:05;;;;;;;17.87;16.17;;;11.10;99.90;;;;;;6240212;23;20740;-47
2022/09/25 02:46:43;;;;;;;17.27;15.57;;;11.20;99.90;;;;;;6239750;23;20156;-44
2022/09/25 02:49:34;;;;;;;17.83;15.97;;;11.20;99.90;;;;;;6240481;23;20421;-45
2022/09/25 02:52:12;;;;;;;17.50;15.70;;;11.20;93.40;;;;;;6239908;23;20406;-48
2022/09/25 02:55:05;;;;;;;18.00;16.20;;;11.20;87.30;;;;;;6239365;23;20699;-44
2022/09/25 02:57:48;;;;;;;17.40;15.73;;;11.20;90.10;;;;;;6212960;23;20436;-46
2022/09/25 03:00:14;;;;;;;17.47;15.70;;;11.30;87.70;;;;;;6239738;23;20440;-48
2022/09/25 03:02:42;;;;;;;17.83;16.03;;;11.30;84.30;;;;;;6239969;23;20373;-48
2022/09/25 03:05:12;;;;;;;17.60;15.90;;;11.30;82.80;;;;;;6239494;23;20353;-46
2022/09/25 03:10:23;;;;;;;17.23;15.53;;;11.40;79.10;;;;;;6239834;23;20359;-44
2022/09/25 03:12:48;;;;;;;17.80;16.00;;;11.40;78.00;;;;;;6238816;23;20738;-46
2022/09/25 03:15:15;;;;;;;15.73;14.30;;;11.40;76.60;;;;;;6239239;23;20399;-47
2022/09/25 03:17:42;;;;;;;15.60;14.10;;;11.40;75.80;;;;;;6239253;23;20256;-47
2022/09/25 03:20:08;;;;;;;16.77;15.17;;;11.40;75.50;;;;;;6239773;23;20353;-46
2022/09/25 03:22:35;;;;;;;16.67;14.97;;;11.50;73.40;;;;;;6239751;23;20683;-44
2022/09/25 03:25:00;;;;;;;16.03;14.43;;;11.40;73.70;;;;;;6239422;23;20475;-44
2022/09/25 03:27:27;;;;;;;15.40;14.00;;;11.50;76.90;;;;;;6240161;23;20369;-50
2022/09/25 03:29:54;;;;;;;16.33;14.83;;;11.50;78.10;;;;;;6213041;23;20537;-44
2022/09/25 03:32:20;;;;;;;16.80;15.20;;;11.50;76.40;;;;;;6239735;23;20459;-45
2022/09/25 03:34:46;;;;;;;16.87;14.47;;;11.50;79.30;;;;;;6239179;23;20372;-45
2022/09/25 03:37:12;;;;;;;15.30;13.80;;;11.50;82.60;;;;;;6239508;23;20482;-51
2022/09/25 03:39:37;;;;;;;17.70;15.80;;;11.40;90.10;;;;;;6187113;23;1253618;-45
2022/09/25 03:42:03;;;;;;;16.17;14.60;;;11.40;92.80;;;;;;6241675;23;20137;-45
2022/09/25 03:44:29;;;;;;;15.70;13.90;;;11.40;91.50;;;;;;6241441;23;20195;-47
2022/09/25 03:46:54;;;;;;;16.93;15.13;;;11.40;91.30;;;;;;6242160;23;20380;-47
2022/09/25 03:49:21;;;;;;;14.87;13.40;;;11.40;92.10;;;;;;6241446;23;20146;-47
2022/09/25 03:51:47;;;;;;;16.43;14.73;;;11.40;92.90;;;;;;6241166;23;20169;-48
2022/09/25 03:54:12;;;;;;;16.33;14.83;;;11.50;95.10;;;;;;6240820;23;20760;-49
2022/09/25 03:56:38;;;;;;;15.17;13.77;;;11.50;94.00;;;;;;6241273;23;20176;-50
2022/09/25 03:59:03;;;;;;;15.60;14.00;;;11.50;93.80;;;;;;6240996;23;20512;-47
2022/09/25 04:01:29;;;;;;;15.57;13.97;;;11.50;93.10;;;;;;6240833;23;20589;-48
2022/09/25 04:03:55;;;;;;;14.87;13.43;;;11.50;90.10;;;;;;6240838;23;20144;-46
2022/09/25 04:06:24;;;;;;;17.00;15.20;;;11.50;89.50;;;;;;6241047;23;20148;-45
2022/09/25 04:08:51;;;;;;;15.30;13.80;;;11.50;89.00;;;;;;6241409;23;20395;-45
2022/09/25 04:11:19;;;;;;;15.80;14.27;;;11.50;91.00;;;;;;6240825;23;20361;-46
2022/09/25 04:13:45;;;;;;;15.37;13.97;;;11.50;92.10;;;;;;6240564;23;20376;-44
2022/09/25 04:16:13;;;;;;;15.77;14.17;;;11.50;90.60;;;;;;6241032;23;20392;-51
2022/09/25 04:18:40;;;;;;;16.67;14.60;;;11.50;88.10;;;;;;6240749;23;20372;-49
2022/09/25 04:21:08;;;;;;;16.63;15.03;;;11.50;87.20;;;;;;6241047;23;20361;-46
2022/09/25 04:23:35;;;;;;;15.90;14.40;;;11.60;89.00;;;;;;6240496;23;20360;-48
2022/09/25 04:26:01;;;;;;;15.97;14.30;;;11.60;89.70;;;;;;6241159;23;20379;-47
2022/09/25 04:28:28;;;;;;;16.87;15.23;;;11.60;90.90;;;;;;6241083;23;20390;-48
2022/09/25 04:30:54;;;;;;;16.23;14.33;;;11.50;91.30;;;;;;6240744;23;20145;-48
2022/09/25 04:36:04;;;;;;;15.00;13.50;;;11.50;94.00;;;;;;6240457;23;20180;-46
2022/09/25 04:38:31;;;;;;;15.57;14.07;;;11.60;93.10;;;;;;6240935;23;20451;-44
2022/09/25 04:40:58;;;;;;;14.90;13.40;;;11.60;92.20;;;;;;6240885;23;20448;-44
2022/09/25 04:43:26;;;;;;;16.00;14.40;;;11.60;91.90;;;;;;6240354;23;20387;-45
2022/09/25 04:45:51;;;;;;;14.07;12.77;;;11.60;91.70;;;;;;6240245;23;20466;-48
2022/09/25 04:48:17;;;;;;;15.40;13.90;;;11.60;90.80;;;;;;6240706;23;20884;-43
2022/09/25 04:50:48;;;;;;;15.40;13.90;;;11.60;88.40;;;;;;6240865;23;20150;-45
2022/09/25 04:53:14;;;;;;;15.73;14.03;;;11.60;87.50;;;;;;6240701;23;20207;-46
2022/09/25 04:55:39;;;;;;;15.60;14.00;;;11.60;80.50;;;;;;6239970;23;20406;-44
2022/09/25 04:58:05;;;;;;;15.57;14.00;;;11.60;81.80;;;;;;6240475;23;20801;-45
2022/09/25 05:00:31;;;;;;;14.70;13.23;;;11.60;83.10;;;;;;6240170;23;20142;-43
2022/09/25 05:02:57;;;;;;;16.50;14.93;;;11.60;81.80;;;;;;6240635;23;20703;-48
2022/09/25 05:05:29;;;;;;;14.23;12.93;;;11.70;81.50;;;;;;6240791;23;20353;-46
2022/09/25 05:07:59;;;;;;;15.70;14.10;;;11.60;80.90;;;;;;6240690;23;20360;-46
2022/09/25 05:10:27;;;;;;;14.23;12.83;;;11.70;84.80;;;;;;6239905;23;20863;-45
2022/09/25 05:13:01;;;;;;;14.33;13.03;;;11.70;85.50;;;;;;6240474;23;20384;-45
2022/09/25 05:15:28;;;;;;;15.30;13.70;;;11.70;83.10;;;;;;6239104;23;20376;-45
2022/09/25 05:18:06;;;;;;;15.50;13.90;;;11.70;81.40;;;;;;6240296;23;20738;-47
2022/09/25 05:20:34;;;;;;;14.67;13.27;;;11.70;82.30;;;;;;6239544;23;20376;-45
2022/09/25 05:23:02;;;;;;;15.60;14.00;;;11.70;81.00;;;;;;6239624;23;20595;-47
2022/09/25 05:25:27;;;;;;;15.30;13.80;;;11.70;82.00;;;;;;6240075;23;20363;-48
2022/09/25 05:27:57;;;;;;;15.90;14.40;;;11.70;85.50;;;;;;6240415;23;20392;-45
2022/09/25 05:30:23;;;;;;;15.90;14.40;;;11.70;90.40;;;;;;6240022;23;20506;-47
2022/09/25 05:32:49;;;;;;;15.63;14.07;;;11.70;92.70;;;;;;6240458;23;20361;-49
2022/09/25 05:35:20;;;;;;;16.20;14.60;;;11.70;93.00;;;;;;6240380;23;20804;-47
2022/09/25 05:37:46;;;;;;;16.20;14.50;;;11.80;92.10;;;;;;6239620;23;20509;-45
2022/09/25 05:40:16;;;;;;;14.57;13.03;;;11.80;91.40;;;;;;6240095;23;20365;-45
2022/09/25 05:42:43;;;;;;;15.70;14.20;;;11.80;90.20;;;;;;6239840;23;20203;-47
2022/09/25 05:45:10;;;;;;;16.13;13.30;;;11.80;92.50;;;;;;6239744;23;20460;-46
2022/09/25 05:47:37;;;;;;;15.20;13.80;;;11.90;92.40;;;;;;6240564;23;20447;-48
2022/09/25 05:50:03;;;;;;;16.27;14.60;;;11.90;92.20;;;;;;6240211;23;20387;-49
2022/09/25 05:52:30;;;;;;;15.03;13.63;;;11.90;91.20;;;;;;6239821;23;20403;-49
2022/09/25 05:54:55;;;;;;;15.57;14.13;;;12.00;91.20;;;;;;6240889;23;20899;-46
2022/09/25 05:57:21;;;;;;;15.07;13.57;;;12.00;84.20;;;;;;6240071;23;20455;-44
2022/09/25 05:59:48;;;;;;;14.63;13.33;;;12.00;73.30;;;;;;6239965;23;20141;-46
2022/09/25 06:02:15;;;;;;;15.27;13.90;;;12.00;64.90;;;;;;6239902;23;20411;-46
2022/09/25 06:04:40;;;;;;;15.47;13.97;;;12.10;68.30;;;;;;6213432;23;20838;-46
2022/09/25 06:07:08;;;;;;;15.23;13.73;;;12.10;63.30;;;;;;6240609;23;20369;-45
2022/09/25 06:09:34;;;;;;;16.27;14.67;;;12.10;58.70;;;;;;6240543;23;20143;-45
2022/09/25 06:12:01;;;;;;;15.63;14.10;;;12.20;56.20;;;;;;6239643;23;20384;-45
2022/09/25 06:14:26;;;;;;;16.07;14.57;;;12.20;55.10;;;;;;6239988;23;20447;-45
2022/09/25 06:16:52;;;;;;;14.90;13.30;;;12.30;53.80;;;;;;6240129;23;20518;-47
2022/09/25 06:19:18;;;;;;;16.27;14.67;;;12.30;52.20;;;;;;6240193;23;20164;-45
2022/09/25 06:21:44;;;;;;;15.30;13.70;;;12.40;50.10;;;;;;6238891;23;20462;-47
2022/09/25 06:24:09;;;;;;;16.00;14.40;;;12.40;47.60;;;;;;6240239;23;20142;-46
2022/09/25 06:26:35;;;;;;;16.00;14.50;;;12.50;42.90;;;;;;6239935;23;20377;-44
2022/09/25 06:29:02;;;;;;;14.67;13.27;;;12.50;27.70;;;;;;6240506;23;20152;-46
2022/09/25 06:31:28;;;;;;;14.97;13.57;;;12.60;21.70;;;;;;6240175;23;20653;-49
2022/09/25 06:33:54;;;;;;;15.53;14.03;;;12.60;11.10;;;;;;6239460;23;20376;-49
2022/09/25 06:36:19;;;;;;;15.13;13.60;;;12.70;3.90;;;;;;6239441;23;20559;-46
2022/09/25 06:38:45;;;;;;;14.10;12.80;;;12.60;1.00;;;;;;6239233;23;20603;-46
2022/09/25 06:41:11;;;;;;;15.30;13.90;;;12.60;1.00;;;;;;6240194;23;20530;-46
2022/09/25 06:43:36;;;;;;;15.03;13.53;;;12.60;1.00;;;;;;6237978;23;20470;-50
2022/09/25 06:46:02;;;;;;;16.87;15.13;;;12.60;1.00;;;;;;6229812;23;20148;-49
2022/09/25 06:48:29;;;;;;;14.73;13.23;;;12.80;1.00;;;;;;6230058;23;20155;-47
2022/09/25 06:50:56;;;;;;;15.80;14.30;;;13.00;1.00;;;;;;6232325;23;20138;-45
2022/09/25 06:53:23;;;;;;;15.23;13.73;;;13.10;1.00;;;;;;6232135;23;20862;-45
2022/09/25 06:55:49;;;;;;;14.73;13.23;;;13.30;1.00;;;;;;6232161;23;20383;-50
2022/09/25 06:58:20;;;;;;;16.17;14.67;;;13.20;1.00;;;;;;6232010;23;20417;-49
2022/09/25 07:00:50;;;;;;;15.87;14.17;;;13.20;1.00;;;;;;6231690;23;20388;-45
2022/09/25 07:06:02;;;;;;;14.93;13.50;;;13.40;1.00;;;;;;6231394;23;20387;-47
2022/09/25 07:08:28;;;;;;;14.20;12.90;;;13.40;1.00;;;;;;6232023;23;20362;-48
2022/09/25 07:10:55;;;;;;;14.23;12.90;;;13.40;1.00;;;;;;6232464;23;20446;-47
2022/09/25 07:13:23;;;;;;;14.77;13.17;;;13.50;1.00;;;;;;6231592;23;20568;-49
2022/09/25 07:15:54;;;;;;;14.07;12.77;;;13.70;1.00;;;;;;6210148;23;20426;-49
2022/09/25 07:18:20;;;;;;;15.33;13.80;;;13.90;1.00;;;;;;6241588;23;20419;-48
2022/09/25 07:20:46;;;;;;;13.33;12.10;;;14.10;1.00;;;;;;6241544;23;20372;-47
2022/09/25 07:23:16;;;;;;;13.67;12.30;;;14.20;1.00;;;;;;6241881;23;20451;-47
2022/09/25 07:25:42;;;;;;;14.00;12.80;;;14.50;1.00;;;;;;6241789;23;20371;-52
2022/09/25 07:28:11;;;;;;;13.07;11.77;;;14.40;1.00;;;;;;6241258;23;20385;-52
2022/09/25 07:30:37;;;;;;;14.13;12.47;;;14.40;1.00;;;;;;6241322;23;20388;-48
2022/09/25 07:33:03;;;;;;;13.23;12.03;;;14.40;1.00;;;;;;6240087;23;20707;-48
2022/09/25 07:35:28;;;;;;;13.53;12.30;;;14.40;99.90;;;;;;6241297;23;20655;-48
2022/09/25 07:37:57;;;;;;;13.60;12.40;;;14.40;1.00;;;;;;6241072;23;20216;-48
2022/09/25 07:40:25;;;;;;;15.30;13.70;;;14.50;99.90;;;;;;6241897;23;20149;-47
2022/09/25 07:42:50;;;;;;;14.10;12.60;;;14.40;99.90;;;;;;6241015;23;20444;-47
2022/09/25 07:45:16;;;;;;;12.93;11.63;;;14.50;99.90;;;;;;6241691;23;20457;-54
2022/09/25 07:47:41;;;;;;;13.57;12.27;;;14.60;99.90;;;;;;6241328;23;20157;-45
2022/09/25 07:50:07;;;;;;;13.70;12.40;;;14.50;99.90;;;;;;6241020;23;20145;-48
2022/09/25 07:52:33;;;;;;;14.83;13.30;;;14.60;99.90;;;;;;6240582;23;20245;-45
2022/09/25 07:54:58;;;;;;;13.40;12.03;;;14.70;99.90;;;;;;6241201;23;20396;-46
2022/09/25 07:57:24;;;;;;;13.73;12.07;;;14.80;99.90;;;;;;6241180;23;20236;-47
2022/09/25 07:59:50;;;;;;;14.10;12.80;;;14.90;99.90;;;;;;6240154;23;20486;-46
2022/09/25 08:02:15;;;;;;;13.67;12.37;;;14.80;99.90;;;;;;6241180;23;20224;-46
2022/09/25 08:04:41;;;;;;;13.90;12.47;;;14.80;99.90;;;;;;6241128;23;20187;-45
2022/09/25 08:07:06;;;;;;;13.43;12.13;;;14.90;93.60;;;;;;6231778;23;20149;-47
2022/09/25 08:09:32;;;;;;;12.97;11.77;;;15.00;1.00;;;;;;6239261;23;20138;-44
2022/09/25 08:11:58;;;;;;;14.03;12.73;;;15.10;1.00;;;;;;6239837;23;20152;-44
2022/09/25 08:14:24;;;;;;;13.70;12.43;;;15.30;1.00;;;;;;6240244;23;20142;-43
2022/09/25 08:16:53;;;;;;;14.10;12.87;;;15.30;1.00;;;;;;6241041;23;20251;-44
2022/09/25 08:19:21;;;;;;;13.53;12.30;;;15.30;1.00;;;;;;6240261;23;20460;-44
2022/09/25 08:21:47;;;;;;;13.80;12.50;;;15.50;99.90;;;;;;6239594;23;20361;-48
2022/09/25 08:24:13;;;;;;;13.63;12.27;;;15.80;1.00;;;;;;6240246;23;20821;-42
2022/09/25 08:26:38;;;;;;;13.30;12.20;;;16.20;1.00;;;;;;6239077;23;20530;-47
2022/09/25 08:29:04;;;;;;;14.37;13.17;;;16.70;1.00;;;;;;6240169;23;20144;-43
2022/09/25 08:31:29;;;;;;;14.00;12.80;;;16.80;1.00;;;;;;6239409;23;20149;-46
2022/09/25 08:33:55;;;;;;;14.53;13.27;;;17.00;1.00;;;;;;6238669;23;20604;-48
2022/09/25 08:36:22;;;;;;;13.87;12.57;;;17.10;1.00;;;;;;6213476;23;20187;-45
2022/09/25 08:38:48;;;;;;;14.90;13.50;;;17.20;99.90;;;;;;6240887;23;20189;-48
2022/09/25 08:41:28;;;;;;;14.53;13.23;;;17.30;1.00;;;;;;6241055;23;20378;-50
2022/09/25 08:44:02;;;;;;;14.63;13.13;;;17.40;99.90;;;;;;6238811;23;20144;-49
2022/09/25 08:50:00;;;;;;;13.80;12.60;;;17.90;1.00;;;;;;6238965;23;20718;-44
2022/09/25 08:52:26;;;;;;;14.27;12.93;;;18.00;1.00;;;;;;6232398;23;20863;-43
2022/09/25 08:54:51;;;;;;;14.83;13.53;;;18.00;1.00;;;;;;6239114;23;20365;-44
2022/09/25 08:57:33;;;;;;;14.40;13.20;;;18.00;1.00;;;;;;6238526;23;20643;-45
2022/09/25 09:00:08;;;;;;;15.03;13.70;;;18.10;1.00;;;;;;6240561;23;20134;-48
2022/09/25 09:02:41;;;;;;;14.23;12.90;;;18.30;1.00;;;;;;6240180;23;20365;-49
2022/09/25 09:05:19;;;;;;;14.20;13.03;;;18.70;99.90;;;;;;6240756;23;20375;-44
2022/09/25 09:07:52;;;;;;;12.60;11.50;;;18.90;99.90;;;;;;6240803;23;20375;-43
2022/09/25 09:10:37;;;;;;;13.93;12.67;;;18.90;99.90;;;;;;6240386;23;20381;-49
2022/09/25 09:13:17;;;;;;;14.57;13.37;;;19.40;99.90;;;;;;6239910;23;20357;-45
2022/09/25 09:15:48;;;;;;;13.33;12.23;;;20.00;1.00;;;;;;6240362;23;20371;-45
2022/09/25 09:18:24;;;;;;;13.87;12.73;;;20.80;1.00;;;;;;6240154;23;20420;-43
2022/09/25 09:21:00;;;;;;;14.83;13.53;;;21.40;1.00;;;;;;6240669;23;20364;-44
2022/09/25 09:23:51;;;;;;;14.07;12.93;;;22.10;1.00;;;;;;6239703;23;20364;-44
2022/09/25 09:26:31;;;;;;;13.57;12.40;;;23.40;99.90;;;;;;6239816;23;20353;-46
2022/09/25 09:29:09;;;;;;;14.23;13.23;;;23.50;99.90;;;;;;6240549;23;20815;-45
2022/09/25 09:31:51;;;;;;;13.60;12.60;;;24.10;99.90;;;;;;6240636;23;20712;-47
2022/09/25 09:34:34;;;;;;;13.60;12.63;;;24.70;99.90;;;;;;6240320;23;20724;-47
2022/09/25 09:37:28;;;;;;;14.27;13.27;;;25.40;99.90;;;;;;6240222;23;20411;-45
2022/09/25 09:40:40;;;;;;;16.83;15.50;;;25.70;99.90;;;;;;6240007;23;20712;-43
2022/09/25 09:43:30;;;;;;;14.63;13.57;;;26.30;99.90;;;;;;6227053;23;20380;-44
2022/09/25 09:46:14;;;;;;;15.30;14.07;;;26.30;99.90;;;;;;6240033;23;20348;-46
2022/09/25 09:49:04;;;;;;;15.50;14.40;;;25.50;99.90;;;;;;6240233;23;20375;-45
2022/09/25 09:51:54;;;;;;;14.97;13.87;;;25.80;99.90;;;;;;6240370;23;20353;-46
2022/09/25 09:54:36;;;;;;;15.60;14.50;;;26.40;99.90;;;;;;6239090;23;20363;-47
2022/09/25 09:57:12;;;;;;;14.27;13.07;;;27.00;99.90;;;;;;6240144;23;20518;-45
2022/09/25 10:00:03;;;;;;;15.07;13.97;;;27.50;99.90;;;;;;6240330;23;20367;-46
2022/09/25 10:02:40;;;;;;;14.33;13.23;;;27.70;99.90;;;;;;6240056;23;20794;-43
2022/09/25 10:05:17;;;;;;;15.57;14.57;;;27.60;99.90;;;;;;6240342;23;20893;-43
2022/09/25 10:07:43;;;;;;;15.20;14.10;;;27.80;99.90;;;;;;6241151;23;20368;-45
2022/09/25 10:10:13;;;;;;;14.33;13.43;;;27.30;99.90;;;;;;6239811;23;20423;-48
2022/09/25 10:12:45;;;;;;;15.00;13.90;;;27.20;99.90;;;;;;6239834;23;20372;-49
2022/09/25 10:15:37;;;;;;;14.70;13.60;;;27.50;99.90;;;;;;6239415;23;20360;-50
2022/09/25 10:18:03;;;;;;;15.33;14.33;;;27.80;99.90;;;;;;6236380;23;20890;-44
2022/09/25 10:20:45;;;;;;;14.10;13.10;;;28.20;99.90;;;;;;6239952;23;20440;-49
2022/09/25 10:23:46;;;;;;;15.03;13.93;;;28.40;99.90;;;;;;6241453;23;20820;-46
2022/09/25 10:26:41;;;;;;;15.20;14.10;;;28.80;99.90;;;;;;6240281;23;20970;-45
2022/09/25 10:29:06;;;;;;;14.43;13.53;;;28.40;99.90;;;;;;6235385;23;20395;-44
2022/09/25 10:31:37;;;;;;;13.80;12.87;;;28.00;99.90;;;;;;6242334;23;20835;-47
2022/09/25 10:34:12;;;;;;;13.47;12.40;;;28.30;99.90;;;;;;6241514;23;20175;-44
2022/09/25 10:36:48;;;;;;;13.10;12.20;;;28.90;99.90;;;;;;6241540;23;20680;-44
2022/09/25 10:39:34;;;;;;;13.40;12.50;;;28.80;99.90;;;;;;6242304;23;20972;-49
2022/09/25 10:42:01;;;;;;;14.07;13.07;;;28.60;99.90;;;;;;6241938;23;20394;-46
2022/09/25 10:44:30;;;;;;;14.33;13.33;;;28.20;99.90;;;;;;6242178;23;20545;-44
2022/09/25 10:52:46;;;;;;;13.87;12.80;;;30.10;99.90;;;;;;6241935;23;20371;-44
2022/09/25 10:55:18;;;;;;;13.73;12.83;;;30.00;99.90;;;;;;6242469;23;20405;-43
2022/09/25 10:57:46;;;;;;;13.60;12.60;;;30.00;99.90;;;;;;6241823;23;20419;-42
2022/09/25 11:00:22;;;;;;;13.50;12.50;;;30.10;99.90;;;;;;6241924;23;20744;-47
2022/09/25 11:02:52;;;;;;;11.97;10.97;;;29.70;99.90;;;;;;6241533;23;20717;-44
2022/09/25 11:05:20;;;;;;;11.00;10.20;;;30.00;99.90;;;;;;6241663;23;20368;-45
2022/09/25 11:07:53;;;;;;;11.60;10.90;;;30.20;99.90;;;;;;6242302;23;20369;-44
2022/09/25 11:10:29;;;;;;;11.83;10.93;;;30.20;99.90;;;;;;6241652;23;20380;-44
2022/09/25 11:12:57;;;;;;;11.53;10.73;;;30.50;99.90;;;;;;6241390;23;20360;-44
2022/09/25 11:15:26;;;;;;;11.83;11.03;;;30.10;99.90;;;;;;6241668;23;20368;-44
2022/09/25 11:17:54;;;;;;;11.10;10.40;;;30.90;99.90;;;;;;6241562;23;20866;-47
2022/09/25 11:20:30;;;;;;;11.33;10.63;;;30.50;99.90;;;;;;6241882;23;20365;-47
2022/09/25 11:23:14;;;;;;;10.53;9.93;;;30.80;99.90;;;;;;6241213;23;20360;-49
2022/09/25 11:25:58;;;;;;;11.40;10.63;;;31.10;99.90;;;;;;6241537;23;20376;-43
2022/09/25 11:28:48;;;;;;;10.90;10.30;;;30.50;99.90;;;;;;6241260;23;20375;-48
2022/09/25 11:31:39;;;;;;;9.00;8.50;;;30.40;99.90;;;;;;6241676;23;20360;-45
2022/09/25 11:34:16;;;;;;;10.83;10.13;;;31.50;99.90;;;;;;6237159;23;20469;-44
2022/09/25 11:36:51;;;;;;;9.13;8.50;;;31.50;99.90;;;;;;6241430;23;20412;-46
2022/09/25 11:42:24;;;;;;;10.50;9.77;;;31.80;99.90;;;;;;6241863;23;20467;-50
2022/09/25 11:45:07;;;;;;;10.60;10.00;;;32.10;99.90;;;;;;6241385;23;20372;-46
2022/09/25 11:47:47;;;;;;;10.30;9.60;;;32.30;99.90;;;;;;6241476;23;20363;-43
2022/09/25 11:50:15;;;;;;;10.80;10.10;;;32.30;99.90;;;;;;6241776;23;20372;-45
2022/09/25 11:53:02;;;;;;;10.13;9.53;;;32.30;99.90;;;;;;6241200;23;20446;-44
2022/09/25 11:55:40;;;;;;;10.30;9.50;;;31.90;99.90;;;;;;6241303;23;20360;-44
2022/09/25 11:58:15;;;;;;;9.63;9.03;;;31.90;99.90;;;;;;6241217;23;20419;-43
2022/09/25 12:00:59;;;;;;;10.03;9.43;;;32.00;99.90;;;;;;6241344;23;20829;-43
2022/09/25 12:03:59;;;;;;;10.70;10.10;;;32.00;99.90;;;;;;6241266;23;20380;-49
2022/09/25 12:06:32;;;;;;;10.00;9.37;;;31.80;99.90;;;;;;6241631;23;20410;-50
2022/09/25 12:09:15;;;;;;;10.03;9.33;;;31.80;99.90;;;;;;6240814;23;20368;-48
2022/09/25 12:12:10;;;;;;;10.37;9.57;;;31.70;99.90;;;;;;6229895;23;20458;-44
2022/09/25 12:14:56;;;;;;;8.80;8.30;;;31.60;99.90;;;;;;6241440;23;20795;-45
2022/09/25 12:17:45;;;;;;;9.30;8.70;;;31.10;99.90;;;;;;6241005;23;20412;-47
2022/09/25 12:20:47;;;;;;;10.30;9.70;;;31.50;99.90;;;;;;6240894;23;20431;-46
2022/09/25 12:23:25;;;;;;;9.60;9.00;;;30.70;99.90;;;;;;6240945;23;20915;-46
2022/09/25 12:25:59;;;;;;;8.87;8.27;;;30.50;99.90;;;;;;6241465;23;20364;-43
2022/09/25 12:28:59;;;;;;;9.40;8.80;;;30.60;99.90;;;;;;6241572;23;20387;-45
2022/09/25 12:32:11;;;;;;;9.13;8.43;;;30.00;99.90;;;;;;6240797;23;20468;-45
2022/09/25 12:35:01;;;;;;;9.10;8.60;;;29.10;99.90;;;;;;6228733;23;20446;-43
2022/09/25 12:37:42;;;;;;;9.13;8.43;;;28.70;99.90;;;;;;6240716;23;20416;-45
2022/09/25 12:40:43;;;;;;;9.27;8.67;;;29.00;99.90;;;;;;6240146;23;20717;-46
2022/09/25 12:43:13;;;;;;;9.07;8.37;;;29.70;99.90;;;;;;6237468;23;21252;-47
2022/09/25 12:45:48;;;;;;;8.60;8.10;;;30.10;99.90;;;;;;6240927;23;20411;-44
2022/09/25 12:48:19;;;;;;;8.90;8.40;;;30.40;99.90;;;;;;6240975;23;20690;-48
2022/09/25 12:50:57;;;;;;;8.60;8.10;;;30.90;99.90;;;;;;6240378;23;20423;-45
2022/09/25 12:53:39;;;;;;;8.80;8.30;;;31.00;99.90;;;;;;6240751;23;20376;-43
2022/09/25 12:56:13;;;;;;;8.27;7.60;;;31.30;99.90;;;;;;6241040;23;20422;-45
2022/09/25 12:58:50;;;;;;;7.90;7.40;;;30.90;99.90;;;;;;6240566;23;20404;-47
2022/09/25 13:01:36;;;;;;;8.57;7.97;;;30.70;99.90;;;;;;6241071;23;20360;-46
2022/09/25 13:04:34;;;;;;;7.83;7.37;;;30.20;99.90;;;;;;6240100;23;20443;-44
2022/09/25 13:07:22;;;;;;;8.50;8.00;;;29.90;99.90;;;;;;6239804;23;20361;-45
2022/09/25 13:09:48;;;;;;;7.40;7.00;;;29.90;99.90;;;;;;6240608;23;20352;-49
2022/09/25 13:12:17;;;;;;;8.23;7.83;;;30.40;99.90;;;;;;6240281;23;20842;-46
2022/09/25 13:14:58;;;;;;;7.80;7.30;;;30.80;99.90;;;;;;6239882;23;20430;-45
2022/09/25 13:17:24;;;;;;;7.80;7.30;;;31.10;99.90;;;;;;6240287;23;20426;-43
2022/09/25 13:19:50;;;;;;;8.27;7.77;;;31.30;99.90;;;;;;6240386;23;20809;-45